TimeCDT,TemperatureF,Dew PointF,Humidity,Sea Level PressureIn,VisibilityMPH,Wind Direction,Wind SpeedMPH,Gust SpeedMPH,PrecipitationIn,Events,Conditions,WindDirDegrees,DateUTC
12:15 AM,57.7,52.2,82,30.12,10.0,ESE,4.6,-,N/A,,Clear,120,2014-03-14 05:15:00
12:35 AM,56.8,52.0,84,30.11,10.0,ESE,5.8,-,N/A,,Clear,120,2014-03-14 05:35:00
12:55 AM,56.8,52.2,84,30.11,10.0,ESE,3.5,-,N/A,,Clear,120,2014-03-14 05:55:00
1:15 AM,57.2,52.3,84,30.10,10.0,ESE,4.6,-,N/A,,Clear,120,2014-03-14 06:15:00
1:35 AM,56.7,52.5,86,30.09,10.0,ESE,3.5,-,N/A,,Clear,120,2014-03-14 06:35:00
1:55 AM,57.2,53.1,86,30.09,10.0,ESE,4.6,-,N/A,,Clear,120,2014-03-14 06:55:00
2:15 AM,57.2,52.9,85,30.09,10.0,ESE,5.8,-,N/A,,Clear,120,2014-03-14 07:15:00
2:35 AM,57.2,53.4,87,30.09,10.0,ESE,3.5,-,N/A,,Clear,120,2014-03-14 07:35:00
2:55 AM,56.7,52.7,87,30.07,10.0,ESE,4.6,-,N/A,,Clear,120,2014-03-14 07:55:00
3:15 AM,55.8,52.0,87,30.06,10.0,ESE,4.6,-,N/A,,Clear,120,2014-03-14 08:15:00
3:35 AM,55.4,52.0,88,30.05,10.0,ESE,4.6,-,N/A,,Clear,120,2014-03-14 08:35:00
3:55 AM,55.4,52.2,89,30.05,10.0,ESE,3.5,-,N/A,,Scattered Clouds,120,2014-03-14 08:55:00
4:15 AM,55.6,52.5,89,30.04,10.0,ESE,4.6,-,N/A,,Clear,120,2014-03-14 09:15:00
4:35 AM,55.6,52.5,89,30.03,10.0,ESE,3.5,-,N/A,,Clear,120,2014-03-14 09:35:00
4:55 AM,55.6,52.7,90,30.03,10.0,ESE,3.5,-,N/A,,Clear,120,2014-03-14 09:55:00
5:15 AM,55.2,52.3,90,30.02,10.0,ESE,3.5,-,N/A,,Mostly Cloudy,120,2014-03-14 10:15:00
5:35 AM,55.4,52.5,90,30.02,10.0,ESE,4.6,-,N/A,,Scattered Clouds,120,2014-03-14 10:35:00
5:55 AM,55.0,52.2,90,30.01,10.0,ESE,3.5,-,N/A,,Clear,120,2014-03-14 10:55:00
6:15 AM,54.9,52.2,91,30.01,10.0,ESE,3.5,-,N/A,,Clear,120,2014-03-14 11:15:00
6:35 AM,54.7,52.2,91,30.00,10.0,ESE,3.5,-,N/A,,Scattered Clouds,120,2014-03-14 11:35:00
6:55 AM,55.4,52.9,91,30.01,10.0,SE,4.6,-,N/A,,Scattered Clouds,140,2014-03-14 11:55:00
7:15 AM,55.4,52.7,91,30.01,10.0,SE,4.6,-,N/A,,Clear,140,2014-03-14 12:15:00
7:35 AM,55.2,52.9,92,30.01,10.0,SE,3.5,-,N/A,,Clear,140,2014-03-14 12:35:00
7:55 AM,56.3,53.6,91,30.01,10.0,SE,5.8,-,N/A,,Clear,140,2014-03-14 12:55:00
8:15 AM,56.8,54.5,92,30.01,7.0,SE,5.8,-,N/A,,Clear,140,2014-03-14 13:15:00
8:35 AM,59.4,57.0,92,30.02,10.0,SE,6.9,-,N/A,,Clear,130,2014-03-14 13:35:00
8:55 AM,61.7,58.8,90,30.02,10.0,ESE,6.9,-,N/A,,Scattered Clouds,120,2014-03-14 13:55:00
9:15 AM,62.8,59.2,88,30.04,10.0,SE,6.9,-,N/A,,Mostly Cloudy,140,2014-03-14 14:15:00
9:35 AM,64.8,60.3,85,30.05,10.0,SE,8.1,-,N/A,,Mostly Cloudy,140,2014-03-14 14:35:00
9:55 AM,66.9,60.6,80,30.04,10.0,SSE,9.2,-,N/A,,Scattered Clouds,160,2014-03-14 14:55:00
10:15 AM,68.9,60.4,74,30.05,10.0,SSE,11.5,-,N/A,,Clear,160,2014-03-14 15:15:00
10:35 AM,71.4,61.2,70,30.05,10.0,SSE,11.5,16.1,N/A,,Clear,160,2014-03-14 15:35:00
10:55 AM,71.4,59.7,66,30.05,10.0,SSE,12.7,24.2,N/A,,Scattered Clouds,150,2014-03-14 15:55:00
11:15 AM,73.4,60.1,63,30.04,10.0,SSE,18.4,21.9,N/A,,Scattered Clouds,150,2014-03-14 16:15:00
11:35 AM,72.9,59.5,63,30.04,10.0,SE,16.1,-,N/A,,Scattered Clouds,140,2014-03-14 16:35:00
11:55 AM,76.3,59.4,56,30.04,10.0,SSE,16.1,23.0,N/A,,Scattered Clouds,150,2014-03-14 16:55:00
12:15 PM,77.4,59.5,54,30.03,10.0,SSE,15.0,20.7,N/A,,Scattered Clouds,160,2014-03-14 17:15:00
12:35 PM,77.7,58.5,51,30.03,10.0,South,17.3,23.0,N/A,,Mostly Cloudy,170,2014-03-14 17:35:00
12:55 PM,77.9,59.0,52,30.02,10.0,South,11.5,21.9,N/A,,Mostly Cloudy,170,2014-03-14 17:55:00
1:15 PM,78.8,57.9,49,30.01,10.0,South,16.1,21.9,N/A,,Mostly Cloudy,170,2014-03-14 18:15:00
1:35 PM,79.5,57.6,47,30.00,10.0,SSE,16.1,23.0,N/A,,Overcast,160,2014-03-14 18:35:00
1:55 PM,79.7,57.7,47,29.98,10.0,SSE,20.7,25.3,N/A,,Overcast,150,2014-03-14 18:55:00
2:15 PM,80.6,58.1,46,29.97,10.0,SSE,17.3,23.0,N/A,,Mostly Cloudy,160,2014-03-14 19:15:00
2:35 PM,81.0,57.4,44,29.96,10.0,SSE,18.4,24.2,N/A,,Mostly Cloudy,150,2014-03-14 19:35:00
2:55 PM,82.2,57.6,43,29.95,10.0,SSE,18.4,24.2,N/A,,Scattered Clouds,160,2014-03-14 19:55:00
3:15 PM,83.1,56.5,40,29.94,10.0,South,17.3,-,N/A,,Scattered Clouds,170,2014-03-14 20:15:00
3:35 PM,83.5,57.0,40,29.93,10.0,South,15.0,20.7,N/A,,Scattered Clouds,170,2014-03-14 20:35:00
3:55 PM,80.6,57.6,45,29.92,10.0,SSE,15.0,20.7,N/A,,Mostly Cloudy,150,2014-03-14 20:55:00
4:15 PM,80.8,57.4,45,29.91,10.0,SSE,11.5,21.9,N/A,,Mostly Cloudy,150,2014-03-14 21:15:00
4:35 PM,79.7,57.7,47,29.91,10.0,SE,16.1,21.9,N/A,,Mostly Cloudy,140,2014-03-14 21:35:00
4:55 PM,79.2,57.4,47,29.90,10.0,SSE,16.1,-,N/A,,Scattered Clouds,150,2014-03-14 21:55:00
5:15 PM,79.2,58.1,48,29.90,10.0,SE,16.1,21.9,N/A,,Scattered Clouds,140,2014-03-14 22:15:00
5:35 PM,80.8,57.4,45,29.90,10.0,SSE,16.1,-,N/A,,Clear,160,2014-03-14 22:35:00
5:55 PM,79.9,57.0,45,29.90,10.0,South,16.1,20.7,N/A,,Scattered Clouds,170,2014-03-14 22:55:00
6:15 PM,80.4,56.8,44,29.89,10.0,SSE,15.0,20.7,N/A,,Scattered Clouds,160,2014-03-14 23:15:00
6:35 PM,79.9,56.8,45,29.90,10.0,SSE,16.1,21.9,N/A,,Mostly Cloudy,160,2014-03-14 23:35:00
6:55 PM,77.5,57.0,49,29.90,10.0,SSE,12.7,-,N/A,,Scattered Clouds,150,2014-03-14 23:55:00
7:15 PM,76.5,57.0,51,29.92,10.0,SSE,11.5,-,N/A,,Clear,150,2014-03-15 00:15:00
7:35 PM,75.9,57.4,52,29.93,10.0,SSE,8.1,-,N/A,,Mostly Cloudy,160,2014-03-15 00:35:00
7:55 PM,74.5,57.9,56,29.93,10.0,SSE,10.4,-,N/A,,Mostly Cloudy,150,2014-03-15 00:55:00
8:15 PM,73.4,58.5,59,29.93,10.0,SSE,10.4,-,N/A,,Scattered Clouds,150,2014-03-15 01:15:00
8:35 PM,72.3,58.8,62,29.94,10.0,SSE,9.2,-,N/A,,Clear,150,2014-03-15 01:35:00
8:55 PM,70.9,59.2,66,29.94,10.0,SE,6.9,-,N/A,,Clear,140,2014-03-15 01:55:00
9:15 PM,68.9,59.2,71,29.95,10.0,SE,5.8,-,N/A,,Clear,140,2014-03-15 02:15:00
9:35 PM,68.5,59.7,73,29.95,10.0,SE,5.8,-,N/A,,Clear,140,2014-03-15 02:35:00
9:55 PM,66.6,59.2,77,29.96,10.0,SE,5.8,-,N/A,,Clear,140,2014-03-15 02:55:00
10:15 PM,66.2,59.4,79,29.96,10.0,SE,6.9,-,N/A,,Clear,130,2014-03-15 03:15:00
10:35 PM,66.4,60.3,81,29.96,10.0,SE,6.9,-,N/A,,Clear,130,2014-03-15 03:35:00
10:55 PM,66.7,60.8,81,29.96,10.0,ESE,5.8,-,N/A,,Clear,110,2014-03-15 03:55:00
11:15 PM,65.7,59.7,81,29.97,10.0,ESE,4.6,-,N/A,,Clear,110,2014-03-15 04:15:00
11:35 PM,64.4,59.4,84,29.96,10.0,ESE,4.6,-,N/A,,Clear,110,2014-03-15 04:35:00
11:55 PM,64.4,60.6,88,29.96,10.0,ESE,5.8,-,N/A,,Clear,110,2014-03-15 04:55:00